Airport View

Enter AWOS ICAO identifier for current METAR.

ex. KFNL

KMXO 300445Z AUTO 00000KT 10SM BKN110 00/M01 A3014 RMK AO2

30 Oct 2020 04:47

Frequency: 119.275

Phone: 319-465-6155

Other Area AWOS: KDBQ - KCID - KIIB - KVTI

TAF KDBQ 292320Z 3000/3024 01010KT P6SM OVC035 FM301300 30005KT P6SM OVC070